sensor_id;sensor_type;location;lat;lon;timestamp;temperature;humidity
42365;DHT22;28498;54.400;18.566;2023-04-25T00:00:18;10.90;99.90
42365;DHT22;28498;54.400;18.566;2023-04-25T00:02:45;10.90;99.90
42365;DHT22;28498;54.400;18.566;2023-04-25T00:05:14;10.90;99.90
42365;DHT22;28498;54.400;18.566;2023-04-25T00:07:44;10.90;99.90
42365;DHT22;28498;54.400;18.566;2023-04-25T00:10:11;10.90;99.90
42365;DHT22;28498;54.400;18.566;2023-04-25T00:12:39;10.90;99.90
42365;DHT22;28498;54.400;18.566;2023-04-25T00:15:08;10.90;99.90
42365;DHT22;28498;54.400;18.566;2023-04-25T00:17:36;10.90;99.90
42365;DHT22;28498;54.400;18.566;2023-04-25T00:20:05;10.90;99.90
42365;DHT22;28498;54.400;18.566;2023-04-25T00:22:35;10.90;99.90
42365;DHT22;28498;54.400;18.566;2023-04-25T00:25:05;10.90;99.90
42365;DHT22;28498;54.400;18.566;2023-04-25T00:27:32;10.90;99.90
42365;DHT22;28498;54.400;18.566;2023-04-25T00:30:00;10.90;99.90
42365;DHT22;28498;54.400;18.566;2023-04-25T00:32:26;10.90;99.90
42365;DHT22;28498;54.400;18.566;2023-04-25T00:34:54;10.90;99.90
42365;DHT22;28498;54.400;18.566;2023-04-25T00:37:22;10.90;99.90
42365;DHT22;28498;54.400;18.566;2023-04-25T00:39:49;10.90;99.90
42365;DHT22;28498;54.400;18.566;2023-04-25T00:42:16;10.90;99.90
42365;DHT22;28498;54.400;18.566;2023-04-25T00:44:45;11.00;99.90
42365;DHT22;28498;54.400;18.566;2023-04-25T00:47:12;11.00;99.90
42365;DHT22;28498;54.400;18.566;2023-04-25T00:49:39;11.00;99.90
42365;DHT22;28498;54.400;18.566;2023-04-25T00:52:06;11.00;99.90
42365;DHT22;28498;54.400;18.566;2023-04-25T00:54:33;11.00;99.90
42365;DHT22;28498;54.400;18.566;2023-04-25T00:57:00;11.00;99.90
42365;DHT22;28498;54.400;18.566;2023-04-25T00:59:28;11.00;99.90
42365;DHT22;28498;54.400;18.566;2023-04-25T01:01:56;10.90;99.90
42365;DHT22;28498;54.400;18.566;2023-04-25T01:04:24;11.00;99.90
42365;DHT22;28498;54.400;18.566;2023-04-25T01:06:51;11.00;99.90
42365;DHT22;28498;54.400;18.566;2023-04-25T01:09:19;11.00;99.90
42365;DHT22;28498;54.400;18.566;2023-04-25T01:11:46;11.00;99.90
42365;DHT22;28498;54.400;18.566;2023-04-25T01:14:13;11.00;99.90
42365;DHT22;28498;54.400;18.566;2023-04-25T01:16:40;11.00;99.90
42365;DHT22;28498;54.400;18.566;2023-04-25T01:19:10;11.00;99.90
42365;DHT22;28498;54.400;18.566;2023-04-25T01:21:40;11.00;99.90
42365;DHT22;28498;54.400;18.566;2023-04-25T01:24:07;11.00;99.90
42365;DHT22;28498;54.400;18.566;2023-04-25T01:26:35;11.00;99.90
42365;DHT22;28498;54.400;18.566;2023-04-25T01:29:04;11.00;99.90
42365;DHT22;28498;54.400;18.566;2023-04-25T01:31:32;11.00;99.90
42365;DHT22;28498;54.400;18.566;2023-04-25T01:34:00;10.90;99.90
42365;DHT22;28498;54.400;18.566;2023-04-25T01:36:27;10.90;99.90
42365;DHT22;28498;54.400;18.566;2023-04-25T01:38:54;10.80;99.90
42365;DHT22;28498;54.400;18.566;2023-04-25T01:41:22;10.90;99.90
42365;DHT22;28498;54.400;18.566;2023-04-25T01:43:50;10.80;99.90
42365;DHT22;28498;54.400;18.566;2023-04-25T01:46:17;10.80;99.90
42365;DHT22;28498;54.400;18.566;2023-04-25T01:48:44;10.80;99.90
42365;DHT22;28498;54.400;18.566;2023-04-25T01:51:12;10.80;99.90
42365;DHT22;28498;54.400;18.566;2023-04-25T01:53:39;10.80;99.90
42365;DHT22;28498;54.400;18.566;2023-04-25T01:56:06;10.80;99.90
42365;DHT22;28498;54.400;18.566;2023-04-25T01:58:33;10.80;99.90
42365;DHT22;28498;54.400;18.566;2023-04-25T02:01:01;10.70;99.90
42365;DHT22;28498;54.400;18.566;2023-04-25T02:03:30;10.80;99.90
42365;DHT22;28498;54.400;18.566;2023-04-25T02:05:58;10.80;99.90
42365;DHT22;28498;54.400;18.566;2023-04-25T02:08:25;10.70;99.90
42365;DHT22;28498;54.400;18.566;2023-04-25T02:10:53;10.80;99.90
42365;DHT22;28498;54.400;18.566;2023-04-25T02:13:20;10.70;99.90
42365;DHT22;28498;54.400;18.566;2023-04-25T02:15:47;10.70;99.90
42365;DHT22;28498;54.400;18.566;2023-04-25T02:18:14;10.70;99.90
42365;DHT22;28498;54.400;18.566;2023-04-25T02:20:43;10.70;99.90
42365;DHT22;28498;54.400;18.566;2023-04-25T02:23:11;10.70;99.90
42365;DHT22;28498;54.400;18.566;2023-04-25T02:25:39;10.70;99.90
42365;DHT22;28498;54.400;18.566;2023-04-25T02:28:06;10.70;99.90
42365;DHT22;28498;54.400;18.566;2023-04-25T02:30:33;10.70;99.90
42365;DHT22;28498;54.400;18.566;2023-04-25T02:33:00;10.70;99.90
42365;DHT22;28498;54.400;18.566;2023-04-25T02:35:27;10.70;99.90
42365;DHT22;28498;54.400;18.566;2023-04-25T02:37:53;10.70;99.90
42365;DHT22;28498;54.400;18.566;2023-04-25T02:40:20;10.70;99.90
42365;DHT22;28498;54.400;18.566;2023-04-25T02:42:47;10.70;99.90
42365;DHT22;28498;54.400;18.566;2023-04-25T02:45:14;10.70;99.90
42365;DHT22;28498;54.400;18.566;2023-04-25T02:47:41;10.60;99.90
42365;DHT22;28498;54.400;18.566;2023-04-25T02:50:08;10.70;99.90
42365;DHT22;28498;54.400;18.566;2023-04-25T02:52:35;10.60;99.90
42365;DHT22;28498;54.400;18.566;2023-04-25T02:55:02;10.60;99.90
42365;DHT22;28498;54.400;18.566;2023-04-25T02:57:29;10.60;99.90
42365;DHT22;28498;54.400;18.566;2023-04-25T02:59:56;10.60;99.90
42365;DHT22;28498;54.400;18.566;2023-04-25T03:02:23;10.60;99.90
42365;DHT22;28498;54.400;18.566;2023-04-25T03:04:50;10.60;99.90
42365;DHT22;28498;54.400;18.566;2023-04-25T03:07:17;10.60;99.90
42365;DHT22;28498;54.400;18.566;2023-04-25T03:09:44;10.60;99.90
42365;DHT22;28498;54.400;18.566;2023-04-25T03:12:11;10.60;99.90
42365;DHT22;28498;54.400;18.566;2023-04-25T03:14:38;10.60;99.90
42365;DHT22;28498;54.400;18.566;2023-04-25T03:17:05;10.60;99.90
42365;DHT22;28498;54.400;18.566;2023-04-25T03:19:32;10.60;99.90
42365;DHT22;28498;54.400;18.566;2023-04-25T03:21:59;10.60;99.90
42365;DHT22;28498;54.400;18.566;2023-04-25T03:24:26;10.60;99.90
42365;DHT22;28498;54.400;18.566;2023-04-25T03:26:54;10.60;99.90
42365;DHT22;28498;54.400;18.566;2023-04-25T03:29:20;10.60;99.90
42365;DHT22;28498;54.400;18.566;2023-04-25T03:31:51;10.60;99.90
42365;DHT22;28498;54.400;18.566;2023-04-25T03:34:18;10.60;99.90
42365;DHT22;28498;54.400;18.566;2023-04-25T03:36:45;10.60;99.90
42365;DHT22;28498;54.400;18.566;2023-04-25T03:39:12;10.30;99.90
42365;DHT22;28498;54.400;18.566;2023-04-25T03:41:39;10.00;99.90
42365;DHT22;28498;54.400;18.566;2023-04-25T03:44:06;9.70;99.90
42365;DHT22;28498;54.400;18.566;2023-04-25T03:46:32;9.50;99.90
42365;DHT22;28498;54.400;18.566;2023-04-25T03:49:00;9.40;99.90
42365;DHT22;28498;54.400;18.566;2023-04-25T03:51:26;9.20;99.90
42365;DHT22;28498;54.400;18.566;2023-04-25T03:53:53;9.20;99.90
42365;DHT22;28498;54.400;18.566;2023-04-25T03:56:20;9.20;99.90
42365;DHT22;28498;54.400;18.566;2023-04-25T03:58:47;9.10;99.90
42365;DHT22;28498;54.400;18.566;2023-04-25T04:01:14;9.00;99.90
42365;DHT22;28498;54.400;18.566;2023-04-25T04:03:41;9.00;99.90
42365;DHT22;28498;54.400;18.566;2023-04-25T04:06:09;8.90;99.90
42365;DHT22;28498;54.400;18.566;2023-04-25T04:08:37;8.90;99.90
42365;DHT22;28498;54.400;18.566;2023-04-25T04:11:04;8.80;99.90
42365;DHT22;28498;54.400;18.566;2023-04-25T04:13:31;8.80;99.90
42365;DHT22;28498;54.400;18.566;2023-04-25T04:15:58;8.70;99.90
42365;DHT22;28498;54.400;18.566;2023-04-25T04:18:25;8.70;99.90
42365;DHT22;28498;54.400;18.566;2023-04-25T04:20:52;8.70;99.90
42365;DHT22;28498;54.400;18.566;2023-04-25T04:23:19;8.70;99.90
42365;DHT22;28498;54.400;18.566;2023-04-25T04:25:47;8.70;99.90
42365;DHT22;28498;54.400;18.566;2023-04-25T04:28:14;8.60;99.90
42365;DHT22;28498;54.400;18.566;2023-04-25T04:30:42;8.70;99.90
42365;DHT22;28498;54.400;18.566;2023-04-25T04:33:13;8.70;99.90
42365;DHT22;28498;54.400;18.566;2023-04-25T04:35:41;8.70;99.90
42365;DHT22;28498;54.400;18.566;2023-04-25T04:38:09;8.60;99.90
42365;DHT22;28498;54.400;18.566;2023-04-25T04:40:37;8.60;99.90
42365;DHT22;28498;54.400;18.566;2023-04-25T04:43:04;8.80;98.10
42365;DHT22;28498;54.400;18.566;2023-04-25T04:45:32;8.80;94.00
42365;DHT22;28498;54.400;18.566;2023-04-25T04:48:00;8.90;78.10
42365;DHT22;28498;54.400;18.566;2023-04-25T04:50:27;8.90;62.80
42365;DHT22;28498;54.400;18.566;2023-04-25T04:52:54;8.90;55.60
42365;DHT22;28498;54.400;18.566;2023-04-25T04:55:21;8.90;57.50
42365;DHT22;28498;54.400;18.566;2023-04-25T04:57:48;9.00;43.60
42365;DHT22;28498;54.400;18.566;2023-04-25T05:00:15;9.00;43.30
42365;DHT22;28498;54.400;18.566;2023-04-25T05:02:43;9.10;41.20
42365;DHT22;28498;54.400;18.566;2023-04-25T05:05:10;9.10;34.00
42365;DHT22;28498;54.400;18.566;2023-04-25T05:07:37;9.20;35.30
42365;DHT22;28498;54.400;18.566;2023-04-25T05:10:04;9.20;31.90
42365;DHT22;28498;54.400;18.566;2023-04-25T05:12:31;9.30;23.20
42365;DHT22;28498;54.400;18.566;2023-04-25T05:14:59;9.10;21.70
42365;DHT22;28498;54.400;18.566;2023-04-25T05:17:27;9.20;21.80
42365;DHT22;28498;54.400;18.566;2023-04-25T05:19:53;9.20;18.20
42365;DHT22;28498;54.400;18.566;2023-04-25T05:22:20;9.30;7.90
42365;DHT22;28498;54.400;18.566;2023-04-25T05:24:47;9.20;13.30
42365;DHT22;28498;54.400;18.566;2023-04-25T05:27:17;9.20;20.90
42365;DHT22;28498;54.400;18.566;2023-04-25T05:29:44;9.30;10.60
42365;DHT22;28498;54.400;18.566;2023-04-25T05:32:11;9.30;11.00
42365;DHT22;28498;54.400;18.566;2023-04-25T05:34:39;9.30;10.00
42365;DHT22;28498;54.400;18.566;2023-04-25T05:37:06;9.30;11.20
42365;DHT22;28498;54.400;18.566;2023-04-25T05:39:33;9.40;6.50
42365;DHT22;28498;54.400;18.566;2023-04-25T05:42:00;9.40;10.30
42365;DHT22;28498;54.400;18.566;2023-04-25T05:44:28;9.40;7.90
42365;DHT22;28498;54.400;18.566;2023-04-25T05:46:55;9.40;1.00
42365;DHT22;28498;54.400;18.566;2023-04-25T05:49:22;9.40;8.00
42365;DHT22;28498;54.400;18.566;2023-04-25T05:51:49;9.50;10.80
42365;DHT22;28498;54.400;18.566;2023-04-25T05:54:16;9.50;1.00
42365;DHT22;28498;54.400;18.566;2023-04-25T05:56:42;9.40;1.00
42365;DHT22;28498;54.400;18.566;2023-04-25T05:59:09;9.40;1.00
42365;DHT22;28498;54.400;18.566;2023-04-25T06:01:36;9.30;1.00
42365;DHT22;28498;54.400;18.566;2023-04-25T06:04:03;9.30;1.00
42365;DHT22;28498;54.400;18.566;2023-04-25T06:06:31;9.30;1.00
42365;DHT22;28498;54.400;18.566;2023-04-25T06:08:58;9.20;1.00
42365;DHT22;28498;54.400;18.566;2023-04-25T06:11:25;9.20;1.00
42365;DHT22;28498;54.400;18.566;2023-04-25T06:13:52;9.20;1.00
42365;DHT22;28498;54.400;18.566;2023-04-25T06:16:19;9.20;1.00
42365;DHT22;28498;54.400;18.566;2023-04-25T06:18:46;9.30;1.00
42365;DHT22;28498;54.400;18.566;2023-04-25T06:21:13;9.30;1.00
42365;DHT22;28498;54.400;18.566;2023-04-25T06:23:40;9.10;1.00
42365;DHT22;28498;54.400;18.566;2023-04-25T06:26:07;9.10;1.00
42365;DHT22;28498;54.400;18.566;2023-04-25T06:28:34;9.20;1.00
42365;DHT22;28498;54.400;18.566;2023-04-25T06:31:01;9.20;1.00
42365;DHT22;28498;54.400;18.566;2023-04-25T06:33:28;9.00;1.00
42365;DHT22;28498;54.400;18.566;2023-04-25T06:35:55;9.00;1.00
42365;DHT22;28498;54.400;18.566;2023-04-25T06:38:22;8.90;1.00
42365;DHT22;28498;54.400;18.566;2023-04-25T06:40:49;9.00;1.00
42365;DHT22;28498;54.400;18.566;2023-04-25T06:43:16;8.90;1.00
42365;DHT22;28498;54.400;18.566;2023-04-25T06:45:43;9.00;1.00
42365;DHT22;28498;54.400;18.566;2023-04-25T06:48:13;8.90;1.00
42365;DHT22;28498;54.400;18.566;2023-04-25T06:50:40;8.80;1.00
42365;DHT22;28498;54.400;18.566;2023-04-25T06:53:07;8.70;1.00
42365;DHT22;28498;54.400;18.566;2023-04-25T06:55:35;8.60;1.00
42365;DHT22;28498;54.400;18.566;2023-04-25T06:58:02;8.90;1.00
42365;DHT22;28498;54.400;18.566;2023-04-25T07:00:30;9.00;1.00
42365;DHT22;28498;54.400;18.566;2023-04-25T07:02:57;9.10;1.00
42365;DHT22;28498;54.400;18.566;2023-04-25T07:05:24;9.20;1.00
42365;DHT22;28498;54.400;18.566;2023-04-25T07:07:51;9.30;1.00
42365;DHT22;28498;54.400;18.566;2023-04-25T07:10:18;9.50;1.00
42365;DHT22;28498;54.400;18.566;2023-04-25T07:12:45;9.40;1.00
42365;DHT22;28498;54.400;18.566;2023-04-25T07:15:12;9.20;1.00
42365;DHT22;28498;54.400;18.566;2023-04-25T07:17:39;9.20;1.00
42365;DHT22;28498;54.400;18.566;2023-04-25T07:20:07;9.30;1.00
42365;DHT22;28498;54.400;18.566;2023-04-25T07:22:35;9.40;1.00
42365;DHT22;28498;54.400;18.566;2023-04-25T07:25:03;9.50;1.00
42365;DHT22;28498;54.400;18.566;2023-04-25T07:27:31;9.50;1.00
42365;DHT22;28498;54.400;18.566;2023-04-25T07:29:58;9.60;99.90
42365;DHT22;28498;54.400;18.566;2023-04-25T07:32:25;9.60;1.00
42365;DHT22;28498;54.400;18.566;2023-04-25T07:34:52;9.60;1.00
42365;DHT22;28498;54.400;18.566;2023-04-25T07:37:19;9.60;99.90
42365;DHT22;28498;54.400;18.566;2023-04-25T07:39:46;9.60;99.90
42365;DHT22;28498;54.400;18.566;2023-04-25T07:42:13;9.60;99.90
42365;DHT22;28498;54.400;18.566;2023-04-25T07:44:40;9.70;99.90
42365;DHT22;28498;54.400;18.566;2023-04-25T07:47:09;9.60;99.90
42365;DHT22;28498;54.400;18.566;2023-04-25T07:49:37;9.50;99.90
42365;DHT22;28498;54.400;18.566;2023-04-25T07:52:05;9.60;99.90
42365;DHT22;28498;54.400;18.566;2023-04-25T07:54:35;9.60;1.00
42365;DHT22;28498;54.400;18.566;2023-04-25T07:57:02;9.50;99.90
42365;DHT22;28498;54.400;18.566;2023-04-25T07:59:29;9.60;99.90
42365;DHT22;28498;54.400;18.566;2023-04-25T08:01:56;9.60;99.90
42365;DHT22;28498;54.400;18.566;2023-04-25T08:04:24;9.80;99.90
42365;DHT22;28498;54.400;18.566;2023-04-25T08:06:52;9.90;99.90
42365;DHT22;28498;54.400;18.566;2023-04-25T08:09:21;10.00;99.90
42365;DHT22;28498;54.400;18.566;2023-04-25T08:11:48;10.10;99.90
42365;DHT22;28498;54.400;18.566;2023-04-25T08:14:15;10.20;99.90
42365;DHT22;28498;54.400;18.566;2023-04-25T08:16:42;10.10;1.00
42365;DHT22;28498;54.400;18.566;2023-04-25T08:19:09;10.30;1.00
42365;DHT22;28498;54.400;18.566;2023-04-25T08:21:37;10.50;1.00
42365;DHT22;28498;54.400;18.566;2023-04-25T08:24:04;10.60;1.00
42365;DHT22;28498;54.400;18.566;2023-04-25T08:26:31;10.50;99.90
42365;DHT22;28498;54.400;18.566;2023-04-25T08:28:59;10.60;96.00
42365;DHT22;28498;54.400;18.566;2023-04-25T08:31:26;10.70;75.80
42365;DHT22;28498;54.400;18.566;2023-04-25T08:33:54;10.80;99.90
42365;DHT22;28498;54.400;18.566;2023-04-25T08:36:21;10.90;27.70
42365;DHT22;28498;54.400;18.566;2023-04-25T08:39:05;10.80;99.90
42365;DHT22;28498;54.400;18.566;2023-04-25T08:41:31;10.80;99.90
42365;DHT22;28498;54.400;18.566;2023-04-25T08:43:59;10.80;99.90
42365;DHT22;28498;54.400;18.566;2023-04-25T08:46:27;10.60;99.90
42365;DHT22;28498;54.400;18.566;2023-04-25T08:49:00;10.60;99.90
42365;DHT22;28498;54.400;18.566;2023-04-25T08:51:30;10.50;99.90
42365;DHT22;28498;54.400;18.566;2023-04-25T08:54:10;10.60;99.90
42365;DHT22;28498;54.400;18.566;2023-04-25T08:56:57;10.80;99.90
42365;DHT22;28498;54.400;18.566;2023-04-25T08:59:28;10.90;99.90
42365;DHT22;28498;54.400;18.566;2023-04-25T09:01:57;11.20;1.00
42365;DHT22;28498;54.400;18.566;2023-04-25T09:04:24;11.30;99.90
42365;DHT22;28498;54.400;18.566;2023-04-25T09:06:51;11.50;99.90
42365;DHT22;28498;54.400;18.566;2023-04-25T09:09:18;11.80;99.90
42365;DHT22;28498;54.400;18.566;2023-04-25T09:11:45;11.50;92.60
42365;DHT22;28498;54.400;18.566;2023-04-25T09:14:21;11.60;99.90
42365;DHT22;28498;54.400;18.566;2023-04-25T09:22:00;11.20;99.90
42365;DHT22;28498;54.400;18.566;2023-04-25T09:24:43;11.10;99.90
42365;DHT22;28498;54.400;18.566;2023-04-25T09:27:18;11.00;99.90
42365;DHT22;28498;54.400;18.566;2023-04-25T09:29:45;11.00;99.90
42365;DHT22;28498;54.400;18.566;2023-04-25T09:32:16;11.10;99.90
42365;DHT22;28498;54.400;18.566;2023-04-25T09:34:45;11.20;99.90
42365;DHT22;28498;54.400;18.566;2023-04-25T09:37:22;11.30;99.90
42365;DHT22;28498;54.400;18.566;2023-04-25T09:39:52;11.40;99.90
42365;DHT22;28498;54.400;18.566;2023-04-25T09:42:24;11.20;99.90
42365;DHT22;28498;54.400;18.566;2023-04-25T09:44:56;11.00;99.90
42365;DHT22;28498;54.400;18.566;2023-04-25T09:47:24;11.00;99.90
42365;DHT22;28498;54.400;18.566;2023-04-25T09:49:52;10.80;99.90
42365;DHT22;28498;54.400;18.566;2023-04-25T09:52:21;11.20;99.90
42365;DHT22;28498;54.400;18.566;2023-04-25T09:54:51;11.10;99.90
42365;DHT22;28498;54.400;18.566;2023-04-25T09:57:23;11.30;99.90
42365;DHT22;28498;54.400;18.566;2023-04-25T09:59:53;11.50;99.90
42365;DHT22;28498;54.400;18.566;2023-04-25T10:02:22;11.80;99.90
42365;DHT22;28498;54.400;18.566;2023-04-25T10:04:53;11.80;99.90
42365;DHT22;28498;54.400;18.566;2023-04-25T10:07:24;11.70;99.90
42365;DHT22;28498;54.400;18.566;2023-04-25T10:10:03;11.80;99.90
42365;DHT22;28498;54.400;18.566;2023-04-25T10:12:32;12.00;99.90
42365;DHT22;28498;54.400;18.566;2023-04-25T10:15:00;12.30;99.90
42365;DHT22;28498;54.400;18.566;2023-04-25T10:17:28;12.30;99.90
42365;DHT22;28498;54.400;18.566;2023-04-25T10:19:55;12.30;99.90
42365;DHT22;28498;54.400;18.566;2023-04-25T10:22:36;12.10;99.90
42365;DHT22;28498;54.400;18.566;2023-04-25T10:25:04;12.10;99.90
42365;DHT22;28498;54.400;18.566;2023-04-25T10:27:32;11.50;99.90
42365;DHT22;28498;54.400;18.566;2023-04-25T10:30:10;11.50;99.90
42365;DHT22;28498;54.400;18.566;2023-04-25T10:32:42;11.50;99.90
42365;DHT22;28498;54.400;18.566;2023-04-25T10:35:14;11.50;99.90
42365;DHT22;28498;54.400;18.566;2023-04-25T10:40:31;11.50;99.90
42365;DHT22;28498;54.400;18.566;2023-04-25T10:46:33;11.20;99.90
42365;DHT22;28498;54.400;18.566;2023-04-25T10:49:02;11.30;99.90
42365;DHT22;28498;54.400;18.566;2023-04-25T10:51:31;11.50;99.90
42365;DHT22;28498;54.400;18.566;2023-04-25T10:54:18;11.30;99.90
42365;DHT22;28498;54.400;18.566;2023-04-25T10:56:48;11.30;99.90
42365;DHT22;28498;54.400;18.566;2023-04-25T10:59:17;11.50;99.90
42365;DHT22;28498;54.400;18.566;2023-04-25T11:01:47;11.50;99.90
42365;DHT22;28498;54.400;18.566;2023-04-25T11:04:29;11.60;99.90
42365;DHT22;28498;54.400;18.566;2023-04-25T11:09:38;11.90;99.90
42365;DHT22;28498;54.400;18.566;2023-04-25T11:12:10;12.00;99.90
42365;DHT22;28498;54.400;18.566;2023-04-25T11:14:39;12.10;99.90
42365;DHT22;28498;54.400;18.566;2023-04-25T11:17:11;12.30;99.90
42365;DHT22;28498;54.400;18.566;2023-04-25T11:19:38;12.30;99.90
42365;DHT22;28498;54.400;18.566;2023-04-25T11:22:05;12.30;99.90
42365;DHT22;28498;54.400;18.566;2023-04-25T11:24:34;12.20;99.90
42365;DHT22;28498;54.400;18.566;2023-04-25T11:27:02;12.20;99.90
42365;DHT22;28498;54.400;18.566;2023-04-25T11:29:32;12.30;99.90
42365;DHT22;28498;54.400;18.566;2023-04-25T11:31:59;12.40;99.90
42365;DHT22;28498;54.400;18.566;2023-04-25T11:34:32;12.30;99.90
42365;DHT22;28498;54.400;18.566;2023-04-25T11:37:03;12.40;99.90
42365;DHT22;28498;54.400;18.566;2023-04-25T11:39:31;12.30;99.90
42365;DHT22;28498;54.400;18.566;2023-04-25T11:41:58;12.20;99.90
42365;DHT22;28498;54.400;18.566;2023-04-25T11:44:28;12.00;99.90
42365;DHT22;28498;54.400;18.566;2023-04-25T11:46:55;11.80;99.90
42365;DHT22;28498;54.400;18.566;2023-04-25T11:49:22;11.60;99.90
42365;DHT22;28498;54.400;18.566;2023-04-25T11:51:51;11.50;99.90
42365;DHT22;28498;54.400;18.566;2023-04-25T11:54:18;11.50;99.90
42365;DHT22;28498;54.400;18.566;2023-04-25T11:56:45;11.50;99.90
42365;DHT22;28498;54.400;18.566;2023-04-25T11:59:13;11.50;99.90
42365;DHT22;28498;54.400;18.566;2023-04-25T12:01:48;11.60;99.90
42365;DHT22;28498;54.400;18.566;2023-04-25T12:06:46;11.40;99.90
42365;DHT22;28498;54.400;18.566;2023-04-25T12:09:16;11.30;99.90
42365;DHT22;28498;54.400;18.566;2023-04-25T12:11:46;11.20;99.90
42365;DHT22;28498;54.400;18.566;2023-04-25T12:14:31;11.30;99.90
42365;DHT22;28498;54.400;18.566;2023-04-25T12:16:59;11.30;99.90
42365;DHT22;28498;54.400;18.566;2023-04-25T12:19:32;11.20;99.90
42365;DHT22;28498;54.400;18.566;2023-04-25T12:22:01;11.40;99.90
42365;DHT22;28498;54.400;18.566;2023-04-25T12:24:33;11.40;99.90
42365;DHT22;28498;54.400;18.566;2023-04-25T12:27:05;11.50;99.90
42365;DHT22;28498;54.400;18.566;2023-04-25T12:29:35;11.50;99.90
42365;DHT22;28498;54.400;18.566;2023-04-25T12:32:15;11.40;99.90
42365;DHT22;28498;54.400;18.566;2023-04-25T12:34:43;11.30;99.90
42365;DHT22;28498;54.400;18.566;2023-04-25T12:37:10;11.10;99.90
42365;DHT22;28498;54.400;18.566;2023-04-25T12:39:38;11.10;99.90
42365;DHT22;28498;54.400;18.566;2023-04-25T12:42:05;11.00;99.90
42365;DHT22;28498;54.400;18.566;2023-04-25T12:44:35;11.10;99.90
42365;DHT22;28498;54.400;18.566;2023-04-25T12:47:03;11.10;99.90
42365;DHT22;28498;54.400;18.566;2023-04-25T12:49:31;11.20;99.90
42365;DHT22;28498;54.400;18.566;2023-04-25T12:51:58;11.20;99.90
42365;DHT22;28498;54.400;18.566;2023-04-25T12:54:25;11.30;99.90
42365;DHT22;28498;54.400;18.566;2023-04-25T12:56:52;11.30;99.90
42365;DHT22;28498;54.400;18.566;2023-04-25T12:59:19;11.20;99.90
42365;DHT22;28498;54.400;18.566;2023-04-25T13:01:48;11.20;99.90
42365;DHT22;28498;54.400;18.566;2023-04-25T13:04:15;11.10;99.90
42365;DHT22;28498;54.400;18.566;2023-04-25T13:06:43;11.20;99.90
42365;DHT22;28498;54.400;18.566;2023-04-25T13:09:10;11.30;99.90
42365;DHT22;28498;54.400;18.566;2023-04-25T13:11:39;11.40;99.90
42365;DHT22;28498;54.400;18.566;2023-04-25T13:14:07;11.40;99.90
42365;DHT22;28498;54.400;18.566;2023-04-25T13:16:34;11.50;99.90
42365;DHT22;28498;54.400;18.566;2023-04-25T13:19:01;11.50;99.90
42365;DHT22;28498;54.400;18.566;2023-04-25T13:21:30;11.50;99.90
42365;DHT22;28498;54.400;18.566;2023-04-25T13:23:59;11.60;99.90
42365;DHT22;28498;54.400;18.566;2023-04-25T13:26:26;11.60;99.90
42365;DHT22;28498;54.400;18.566;2023-04-25T13:28:53;12.10;99.90
42365;DHT22;28498;54.400;18.566;2023-04-25T13:31:20;12.60;99.90
42365;DHT22;28498;54.400;18.566;2023-04-25T13:33:48;13.10;99.90
42365;DHT22;28498;54.400;18.566;2023-04-25T13:36:15;13.20;99.90
42365;DHT22;28498;54.400;18.566;2023-04-25T13:38:42;12.80;99.90
42365;DHT22;28498;54.400;18.566;2023-04-25T13:41:10;12.80;99.90
42365;DHT22;28498;54.400;18.566;2023-04-25T13:43:42;12.90;99.90
42365;DHT22;28498;54.400;18.566;2023-04-25T13:46:09;12.90;99.90
42365;DHT22;28498;54.400;18.566;2023-04-25T13:48:56;12.70;99.90
42365;DHT22;28498;54.400;18.566;2023-04-25T13:51:37;12.70;99.90
42365;DHT22;28498;54.400;18.566;2023-04-25T13:54:04;12.60;99.90
42365;DHT22;28498;54.400;18.566;2023-04-25T13:56:31;12.20;99.90
42365;DHT22;28498;54.400;18.566;2023-04-25T13:58:58;12.20;99.90
42365;DHT22;28498;54.400;18.566;2023-04-25T14:01:25;12.10;99.90
42365;DHT22;28498;54.400;18.566;2023-04-25T14:03:54;11.80;99.90
42365;DHT22;28498;54.400;18.566;2023-04-25T14:06:21;11.90;99.90
42365;DHT22;28498;54.400;18.566;2023-04-25T14:08:50;11.80;99.90
42365;DHT22;28498;54.400;18.566;2023-04-25T14:11:17;11.80;99.90
42365;DHT22;28498;54.400;18.566;2023-04-25T14:13:47;11.80;99.90
42365;DHT22;28498;54.400;18.566;2023-04-25T14:16:16;11.80;99.90
42365;DHT22;28498;54.400;18.566;2023-04-25T14:18:43;11.90;99.90
42365;DHT22;28498;54.400;18.566;2023-04-25T14:21:10;11.70;99.90
42365;DHT22;28498;54.400;18.566;2023-04-25T14:23:37;11.40;30.20
42365;DHT22;28498;54.400;18.566;2023-04-25T14:26:04;11.20;1.00
42365;DHT22;28498;54.400;18.566;2023-04-25T14:28:31;10.50;99.90
42365;DHT22;28498;54.400;18.566;2023-04-25T14:30:59;10.20;99.90
42365;DHT22;28498;54.400;18.566;2023-04-25T14:33:26;10.00;99.90
42365;DHT22;28498;54.400;18.566;2023-04-25T14:35:53;10.00;99.90
42365;DHT22;28498;54.400;18.566;2023-04-25T14:38:21;9.90;99.90
42365;DHT22;28498;54.400;18.566;2023-04-25T14:40:50;9.80;99.90
42365;DHT22;28498;54.400;18.566;2023-04-25T14:43:17;9.70;99.90
42365;DHT22;28498;54.400;18.566;2023-04-25T14:45:44;9.60;99.90
42365;DHT22;28498;54.400;18.566;2023-04-25T14:48:11;9.50;99.90
42365;DHT22;28498;54.400;18.566;2023-04-25T14:50:38;9.50;99.90
42365;DHT22;28498;54.400;18.566;2023-04-25T14:53:05;9.40;99.90
42365;DHT22;28498;54.400;18.566;2023-04-25T14:55:32;9.40;99.90
42365;DHT22;28498;54.400;18.566;2023-04-25T14:57:59;9.30;99.90
42365;DHT22;28498;54.400;18.566;2023-04-25T15:00:27;9.20;99.90
42365;DHT22;28498;54.400;18.566;2023-04-25T15:02:55;9.20;99.90
42365;DHT22;28498;54.400;18.566;2023-04-25T15:05:23;9.10;99.90
42365;DHT22;28498;54.400;18.566;2023-04-25T15:07:50;9.00;99.90
42365;DHT22;28498;54.400;18.566;2023-04-25T15:10:18;9.00;99.90
42365;DHT22;28498;54.400;18.566;2023-04-25T15:12:45;9.10;99.90
42365;DHT22;28498;54.400;18.566;2023-04-25T15:15:13;9.10;99.90
42365;DHT22;28498;54.400;18.566;2023-04-25T15:17:52;9.00;99.90
42365;DHT22;28498;54.400;18.566;2023-04-25T15:20:21;9.00;99.90
42365;DHT22;28498;54.400;18.566;2023-04-25T15:22:48;9.10;99.90
42365;DHT22;28498;54.400;18.566;2023-04-25T15:25:16;9.00;99.90
42365;DHT22;28498;54.400;18.566;2023-04-25T15:27:46;9.00;99.90
42365;DHT22;28498;54.400;18.566;2023-04-25T15:30:16;9.10;99.90
42365;DHT22;28498;54.400;18.566;2023-04-25T15:32:44;9.10;99.90
42365;DHT22;28498;54.400;18.566;2023-04-25T15:35:11;9.20;99.90
42365;DHT22;28498;54.400;18.566;2023-04-25T15:37:39;9.20;99.90
42365;DHT22;28498;54.400;18.566;2023-04-25T15:40:13;9.10;99.90
42365;DHT22;28498;54.400;18.566;2023-04-25T15:42:42;9.20;99.90
42365;DHT22;28498;54.400;18.566;2023-04-25T15:45:10;9.20;99.90